createdAt,value
2019-05-07T00:01:19.050Z,76.60
2019-05-07T00:03:47.146Z,77.60
2019-05-07T00:06:15.352Z,78.00
2019-05-07T00:08:44.988Z,82.40
2019-05-07T00:11:13.159Z,79.30
2019-05-07T00:13:44.149Z,79.90
2019-05-07T00:16:12.800Z,80.70
2019-05-07T00:18:42.868Z,79.40
2019-05-07T00:21:12.620Z,78.30
2019-05-07T00:23:40.557Z,80.70
2019-05-07T00:26:08.701Z,80.30
2019-05-07T00:28:37.161Z,80.00
2019-05-07T00:31:05.101Z,80.70
2019-05-07T00:33:34.772Z,83.00
2019-05-07T00:36:12.423Z,84.30
2019-05-07T00:38:42.845Z,84.10
2019-05-07T00:41:22.984Z,82.70
2019-05-07T00:43:54.098Z,83.20
2019-05-07T00:46:27.705Z,84.40
2019-05-07T00:48:55.930Z,83.10
2019-05-07T00:51:33.145Z,83.30
2019-05-07T00:54:02.614Z,83.60
2019-05-07T00:56:30.346Z,85.80
2019-05-07T00:58:58.660Z,83.90
2019-05-07T01:01:27.312Z,84.50
2019-05-07T01:03:55.258Z,87.10
2019-05-07T01:06:26.406Z,86.70
2019-05-07T01:08:53.226Z,87.80
2019-05-07T01:11:22.602Z,86.10
2019-05-07T01:13:52.067Z,86.80
2019-05-07T01:16:22.210Z,87.90
2019-05-07T01:18:50.629Z,85.80
2019-05-07T01:21:18.824Z,85.10
2019-05-07T01:23:46.778Z,85.00
2019-05-07T01:26:14.861Z,85.00
2019-05-07T01:29:02.890Z,85.30
2019-05-07T01:31:39.546Z,85.80
2019-05-07T01:34:23.069Z,86.30
2019-05-07T01:36:52.371Z,87.00
2019-05-07T01:39:20.486Z,88.10
2019-05-07T01:42:27.274Z,93.10
2019-05-07T01:44:56.046Z,91.20
2019-05-07T01:47:24.018Z,91.80
2019-05-07T01:49:55.173Z,91.80
2019-05-07T01:52:23.454Z,92.30
2019-05-07T01:54:52.213Z,93.90
2019-05-07T01:57:22.873Z,93.40
2019-05-07T01:59:52.550Z,92.80
2019-05-07T02:02:29.299Z,93.30
2019-05-07T02:05:08.007Z,93.60
2019-05-07T02:07:44.268Z,94.10
2019-05-07T02:10:26.226Z,94.40
2019-05-07T02:12:54.472Z,94.30
2019-05-07T02:15:22.684Z,95.50
2019-05-07T02:17:52.510Z,95.40
2019-05-07T02:20:22.378Z,94.70
2019-05-07T02:22:50.370Z,95.30
2019-05-07T02:25:18.678Z,95.80
2019-05-07T02:27:46.493Z,95.90
2019-05-07T02:30:14.993Z,96.10
2019-05-07T02:32:43.471Z,96.50
2019-05-07T02:35:13.575Z,96.20
2019-05-07T02:37:52.303Z,95.70
2019-05-07T02:40:34.333Z,94.60
2019-05-07T02:43:02.943Z,94.50
2019-05-07T02:45:48.872Z,93.90
2019-05-07T02:48:19.828Z,93.60
2019-05-07T02:50:54.387Z,93.40
2019-05-07T02:53:28.179Z,93.00
2019-05-07T02:55:56.645Z,93.00
2019-05-07T02:58:24.513Z,92.80
2019-05-07T03:00:53.214Z,92.70
2019-05-07T03:03:24.325Z,92.50
2019-05-07T03:05:53.474Z,92.50
2019-05-07T03:08:24.374Z,91.90
2019-05-07T03:10:52.746Z,91.70
2019-05-07T03:13:23.204Z,90.80
2019-05-07T03:15:50.108Z,90.80
2019-05-07T03:18:19.059Z,90.80
2019-05-07T03:20:53.507Z,90.60
2019-05-07T03:23:25.420Z,90.40
2019-05-07T03:25:57.994Z,92.10
2019-05-07T03:28:26.045Z,90.40
2019-05-07T03:31:16.745Z,89.40
2019-05-07T03:34:06.804Z,89.60
2019-05-07T03:36:46.584Z,89.90
2019-05-07T03:39:14.115Z,89.50
2019-05-07T03:41:45.809Z,90.00
2019-05-07T03:44:23.591Z,90.10
2019-05-07T03:47:01.168Z,90.20
2019-05-07T03:49:33.870Z,89.30
2019-05-07T03:52:04.335Z,89.10
2019-05-07T03:54:34.432Z,89.10
2019-05-07T03:57:10.329Z,88.80
2019-05-07T03:59:34.214Z,88.50
2019-05-07T04:02:03.305Z,88.60
2019-05-07T04:04:33.232Z,88.40
2019-05-07T04:07:03.341Z,91.50
2019-05-07T04:09:33.393Z,89.50
2019-05-07T04:12:04.029Z,89.60
2019-05-07T04:14:34.425Z,91.10
2019-05-07T04:17:14.332Z,89.40
2019-05-07T04:19:32.813Z,89.70
2019-05-07T04:22:04.031Z,91.30
2019-05-07T04:24:59.063Z,93.40
2019-05-07T04:27:33.295Z,91.80
2019-05-07T04:30:03.875Z,92.00
2019-05-07T04:32:39.497Z,92.40
2019-05-07T04:35:13.064Z,92.70
2019-05-07T04:37:42.725Z,92.50
2019-05-07T04:40:10.312Z,91.10
2019-05-07T04:42:38.002Z,93.50
2019-05-07T04:45:06.253Z,91.60
2019-05-07T04:47:42.560Z,89.10
2019-05-07T04:50:04.805Z,88.10
2019-05-07T04:52:35.198Z,88.10
2019-05-07T04:55:04.151Z,83.90
2019-05-07T04:57:33.006Z,86.50
2019-05-07T05:00:03.342Z,88.10
2019-05-07T05:02:48.288Z,85.70
2019-05-07T05:05:17.159Z,84.10
2019-05-07T05:07:46.706Z,85.20
2019-05-07T05:10:14.624Z,82.80
2019-05-07T05:12:43.014Z,82.30
2019-05-07T05:15:12.626Z,84.70
2019-05-07T05:17:49.616Z,83.30
2019-05-07T05:20:10.352Z,81.80
2019-05-07T05:22:57.600Z,84.60
2019-05-07T05:25:29.593Z,81.10
2019-05-07T05:27:57.381Z,80.20
2019-05-07T05:30:47.352Z,81.20
2019-05-07T05:33:15.194Z,78.40
2019-05-07T05:35:43.293Z,81.90
2019-05-07T05:38:12.723Z,83.00
2019-05-07T05:40:42.662Z,79.30
2019-05-07T05:43:22.291Z,80.60
2019-05-07T05:45:52.898Z,80.80
2019-05-07T05:48:22.235Z,79.10
2019-05-07T05:51:02.738Z,80.30
2019-05-07T05:53:52.285Z,79.60
2019-05-07T05:56:25.984Z,79.90
2019-05-07T05:59:23.693Z,80.00
2019-05-07T06:02:06.610Z,79.60
2019-05-07T06:04:44.287Z,79.20
2019-05-07T06:07:25.740Z,81.40
2019-05-07T06:10:07.465Z,81.10
2019-05-07T06:12:43.314Z,79.50
2019-05-07T06:15:22.194Z,79.20
2019-05-07T06:18:20.978Z,78.50
2019-05-07T06:21:04.170Z,77.20
2019-05-07T06:23:43.017Z,78.50
2019-05-07T06:26:12.662Z,76.40
2019-05-07T06:28:42.419Z,72.70
2019-05-07T06:31:12.464Z,74.00
2019-05-07T06:33:39.673Z,74.20
2019-05-07T06:36:07.484Z,73.40
2019-05-07T06:38:42.700Z,73.20
2019-05-07T06:41:41.888Z,69.10
2019-05-07T06:44:14.213Z,70.00
2019-05-07T06:46:41.997Z,70.90
2019-05-07T06:49:09.672Z,69.30
2019-05-07T06:51:37.263Z,69.40
2019-05-07T06:54:04.969Z,67.80
2019-05-07T06:56:32.816Z,66.70
2019-05-07T06:59:22.457Z,66.20
2019-05-07T07:02:05.807Z,65.40
2019-05-07T07:04:43.580Z,64.80
2019-05-07T07:07:30.943Z,67.20
2019-05-07T07:10:02.733Z,65.30
2019-05-07T07:12:33.131Z,63.70
2019-05-07T07:15:02.560Z,61.70
2019-05-07T07:17:32.430Z,62.20
2019-05-07T07:22:29.029Z,62.80
2019-05-07T07:24:56.607Z,60.90
2019-05-07T07:27:24.377Z,59.80
2019-05-07T07:29:58.184Z,57.80
2019-05-07T07:32:32.300Z,55.60
2019-05-07T07:35:02.227Z,56.30
2019-05-07T07:37:40.222Z,53.10
2019-05-07T07:40:38.526Z,54.40
2019-05-07T07:43:07.088Z,55.70
2019-05-07T07:45:35.041Z,46.70
2019-05-07T07:48:02.914Z,45.30
2019-05-07T07:50:32.376Z,45.00
2019-05-07T07:53:02.347Z,44.90
2019-05-07T07:55:38.395Z,44.70
2019-05-07T07:58:23.273Z,43.80
2019-05-07T08:00:59.099Z,43.80
2019-05-07T08:03:26.669Z,42.10
2019-05-07T08:05:54.313Z,41.60
2019-05-07T08:08:22.038Z,41.40
2019-05-07T08:10:51.838Z,42.70
2019-05-07T08:13:18.997Z,41.80
2019-05-07T08:15:46.547Z,40.10
2019-05-07T08:18:14.311Z,40.00
2019-05-07T08:20:43.040Z,39.40
2019-05-07T08:23:12.220Z,39.80
2019-05-07T08:25:49.149Z,40.40
2019-05-07T08:28:18.221Z,40.90
2019-05-07T08:30:52.792Z,41.30
2019-05-07T08:33:24.744Z,41.00
2019-05-07T08:36:22.598Z,41.10
2019-05-07T08:38:53.833Z,39.90
2019-05-07T08:41:23.292Z,39.10
2019-05-07T08:44:08.049Z,39.00
2019-05-07T08:46:48.452Z,38.30
2019-05-07T08:49:16.421Z,38.70
2019-05-07T08:51:44.077Z,39.20
2019-05-07T08:54:12.358Z,38.60
2019-05-07T08:56:42.309Z,37.30
2019-05-07T08:59:09.775Z,37.60
2019-05-07T09:01:38.620Z,38.30
2019-05-07T09:04:06.393Z,36.20
2019-05-07T09:06:34.132Z,37.60
2019-05-07T09:09:05.878Z,35.70
2019-05-07T09:11:33.593Z,36.50
2019-05-07T09:14:01.824Z,35.90
2019-05-07T09:16:31.819Z,36.90
2019-05-07T09:18:58.930Z,36.70
2019-05-07T09:21:26.507Z,36.80
2019-05-07T09:23:54.229Z,37.40
2019-05-07T09:29:08.026Z,35.40
2019-05-07T09:31:58.024Z,34.80
2019-05-07T09:34:26.686Z,34.30
2019-05-07T09:36:56.102Z,35.50
2019-05-07T09:39:23.984Z,34.40
2019-05-07T09:41:52.667Z,36.00
2019-05-07T09:44:22.040Z,35.30
2019-05-07T09:46:51.943Z,34.80
2019-05-07T09:49:19.392Z,35.10
2019-05-07T09:51:46.967Z,38.20
2019-05-07T09:54:14.546Z,37.00
2019-05-07T09:56:42.313Z,36.40
2019-05-07T09:59:12.442Z,36.40
2019-05-07T10:01:40.325Z,35.30
2019-05-07T10:04:08.186Z,35.70
2019-05-07T10:06:36.040Z,35.40
2019-05-07T10:09:05.455Z,35.80
2019-05-07T10:11:39.746Z,34.40
2019-05-07T10:14:12.216Z,35.70
2019-05-07T10:16:48.824Z,35.50
2019-05-07T10:19:16.504Z,37.40
2019-05-07T10:21:44.345Z,36.60
2019-05-07T10:24:12.978Z,37.20
2019-05-07T10:26:42.720Z,37.60
2019-05-07T10:29:12.422Z,36.40
2019-05-07T10:31:42.256Z,35.20
2019-05-07T10:34:09.297Z,36.10
2019-05-07T10:36:37.005Z,35.00
2019-05-07T10:39:05.690Z,35.80
2019-05-07T10:41:33.293Z,36.60
2019-05-07T10:44:02.523Z,35.70
2019-05-07T10:46:47.622Z,36.00
2019-05-07T10:49:24.683Z,35.70
2019-05-07T10:51:52.277Z,36.20
2019-05-07T10:54:21.767Z,36.10
2019-05-07T10:56:49.371Z,35.50
2019-05-07T10:59:26.731Z,36.80
2019-05-07T11:02:07.213Z,35.80
2019-05-07T11:04:42.579Z,39.50
2019-05-07T11:07:04.857Z,35.80
2019-05-07T11:09:39.487Z,36.20
2019-05-07T11:12:08.332Z,35.80
2019-05-07T11:14:36.216Z,35.70
2019-05-07T11:17:23.983Z,34.20
2019-05-07T11:19:54.664Z,36.50
2019-05-07T11:22:22.557Z,34.30
2019-05-07T11:24:52.214Z,35.30
2019-05-07T11:27:22.429Z,34.60
2019-05-07T11:29:50.122Z,36.40
2019-05-07T11:32:17.809Z,35.70
2019-05-07T11:34:46.259Z,35.30
2019-05-07T11:37:14.371Z,33.00
2019-05-07T11:39:42.877Z,34.80
2019-05-07T11:42:29.016Z,35.00
2019-05-07T11:44:56.712Z,33.20
2019-05-07T11:47:27.315Z,34.50
2019-05-07T11:50:14.786Z,33.20
2019-05-07T11:52:47.406Z,34.40
2019-05-07T11:55:18.280Z,34.70
2019-05-07T11:57:46.120Z,35.60
2019-05-07T12:00:42.959Z,33.10
2019-05-07T12:03:11.056Z,35.10
2019-05-07T12:05:38.862Z,34.80
2019-05-07T12:08:07.219Z,34.90
2019-05-07T12:10:35.134Z,36.80
2019-05-07T12:13:03.230Z,35.50
2019-05-07T12:15:32.473Z,34.80
2019-05-07T12:18:02.747Z,35.60
2019-05-07T12:20:32.256Z,35.60
2019-05-07T12:23:02.607Z,35.40
2019-05-07T12:25:32.021Z,34.90
2019-05-07T12:28:02.409Z,33.70
2019-05-07T12:30:47.069Z,34.00
2019-05-07T12:33:33.376Z,35.80
2019-05-07T12:36:02.088Z,36.40
2019-05-07T12:38:32.242Z,34.60
2019-05-07T12:41:02.417Z,35.70
2019-05-07T12:43:31.943Z,34.50
2019-05-07T12:45:59.929Z,37.20
2019-05-07T12:48:27.954Z,35.50
2019-05-07T12:50:56.040Z,33.80
2019-05-07T12:53:42.434Z,34.10
2019-05-07T12:56:10.591Z,35.50
2019-05-07T12:58:39.560Z,32.30
2019-05-07T13:01:14.926Z,31.80
2019-05-07T13:04:02.946Z,33.20
2019-05-07T13:06:32.556Z,33.30
2019-05-07T13:09:12.618Z,35.10
2019-05-07T13:11:43.486Z,34.70
2019-05-07T13:14:12.559Z,34.50
2019-05-07T13:16:41.363Z,36.80
2019-05-07T13:19:09.500Z,33.40
2019-05-07T13:21:47.381Z,35.70
2019-05-07T13:24:07.954Z,34.50
2019-05-07T13:26:38.627Z,34.20
2019-05-07T13:29:08.232Z,33.90
2019-05-07T13:31:39.532Z,32.50
2019-05-07T13:34:08.830Z,32.60
2019-05-07T13:36:44.617Z,31.00
2019-05-07T13:39:32.479Z,30.60
2019-05-07T13:42:08.589Z,31.20
2019-05-07T13:44:52.160Z,31.30
2019-05-07T13:47:24.969Z,31.90
2019-05-07T13:49:54.116Z,30.30
2019-05-07T13:52:23.211Z,30.90
2019-05-07T13:54:52.653Z,31.00
2019-05-07T14:01:42.094Z,28.40
2019-05-07T14:08:51.807Z,27.20
2019-05-07T14:15:02.175Z,27.90
2019-05-07T14:17:46.912Z,26.80
2019-05-07T14:20:50.869Z,28.20
2019-05-07T14:23:18.530Z,27.30
2019-05-07T14:25:46.527Z,29.00
2019-05-07T14:28:16.342Z,29.20
2019-05-07T14:30:44.641Z,28.60
2019-05-07T14:33:41.381Z,27.20
2019-05-07T14:39:46.765Z,28.60
2019-05-07T14:42:22.123Z,28.70
2019-05-07T14:44:52.621Z,31.70
2019-05-07T14:47:39.863Z,29.40
2019-05-07T14:50:29.283Z,29.50
2019-05-07T14:58:09.448Z,28.20
2019-05-07T15:19:53.928Z,26.50
2019-05-07T15:22:19.112Z,26.20
2019-05-07T15:24:46.751Z,26.30
2019-05-07T15:27:14.477Z,26.30
2019-05-07T15:29:43.956Z,25.70
2019-05-07T15:32:12.653Z,27.00
2019-05-07T15:34:49.412Z,25.50
2019-05-07T15:37:17.598Z,26.30
2019-05-07T15:39:46.617Z,28.10
2019-05-07T15:42:14.341Z,27.90
2019-05-07T15:44:43.201Z,27.50
2019-05-07T15:47:15.995Z,29.20
2019-05-07T15:49:43.925Z,28.30
2019-05-07T15:52:22.178Z,29.60
2019-05-07T15:54:52.087Z,28.30
2019-05-07T15:57:24.702Z,30.40
2019-05-07T16:00:03.976Z,30.10
2019-05-07T16:02:35.055Z,31.00
2019-05-07T16:05:05.028Z,30.30
2019-05-07T16:07:32.834Z,27.90
2019-05-07T16:10:00.526Z,29.80
2019-05-07T16:12:28.536Z,30.50
2019-05-07T16:14:56.336Z,31.70
2019-05-07T16:17:34.242Z,33.80
2019-05-07T16:20:03.195Z,33.90
2019-05-07T16:22:35.023Z,34.50
2019-05-07T16:25:07.124Z,34.50
2019-05-07T16:27:34.325Z,35.90
2019-05-07T16:30:02.011Z,35.00
2019-05-07T16:32:29.574Z,36.20
2019-05-07T16:34:57.140Z,35.50
2019-05-07T16:37:25.072Z,35.40
2019-05-07T16:39:53.159Z,37.00
2019-05-07T16:42:21.799Z,36.70
2019-05-07T16:44:49.744Z,38.00
2019-05-07T16:47:18.256Z,39.10
2019-05-07T16:49:46.118Z,38.70
2019-05-07T17:50:35.230Z,48.40
2019-05-07T17:53:03.813Z,49.10
2019-05-07T17:55:33.135Z,48.10
2019-05-07T17:58:01.989Z,50.00
2019-05-07T18:01:21.391Z,49.20
2019-05-07T18:07:20.821Z,49.70
2019-05-07T18:13:52.177Z,50.10
2019-05-07T18:27:25.927Z,51.40
2019-05-07T18:29:56.836Z,52.10
2019-05-07T18:32:42.640Z,51.70
2019-05-07T18:35:05.340Z,51.80
2019-05-07T18:37:33.581Z,51.90
2019-05-07T18:40:02.492Z,52.20
2019-05-07T18:42:32.533Z,52.70
2019-05-07T18:49:08.597Z,52.90
2019-05-07T18:54:52.149Z,52.90
2019-05-07T19:00:33.104Z,53.20
2019-05-07T19:12:00.831Z,54.50
2019-05-07T19:19:14.402Z,55.50
2019-05-07T19:21:33.300Z,56.10
2019-05-07T19:24:08.843Z,56.50
2019-05-07T19:28:41.943Z,59.00
2019-05-07T19:48:52.985Z,59.50
2019-05-07T19:51:17.352Z,59.30
2019-05-07T19:57:28.205Z,60.00
2019-05-07T20:08:16.021Z,60.90
2019-05-07T20:10:55.167Z,61.20
2019-05-07T20:14:15.269Z,61.10
2019-05-07T20:16:44.061Z,62.20
2019-05-07T20:28:45.506Z,63.40
2019-05-07T20:31:43.555Z,64.20
2019-05-07T20:34:33.762Z,64.90
2019-05-07T20:41:20.287Z,66.20
2019-05-07T20:44:11.753Z,68.60
2019-05-07T20:47:34.587Z,67.10
2019-05-07T20:55:30.592Z,66.80
2019-05-07T20:59:09.310Z,66.90
2019-05-07T21:01:37.246Z,66.40
2019-05-07T21:04:05.251Z,66.30
2019-05-07T21:06:33.094Z,65.90
2019-05-07T21:09:00.882Z,66.00
2019-05-07T21:11:28.536Z,67.70
2019-05-07T21:13:56.229Z,65.30
2019-05-07T21:16:23.919Z,65.40
2019-05-07T21:18:52.961Z,65.50
2019-05-07T21:21:21.823Z,65.70
2019-05-07T21:23:49.676Z,65.30
2019-05-07T21:26:17.393Z,65.50
2019-05-07T21:28:45.184Z,65.40
2019-05-07T21:31:12.998Z,65.50
2019-05-07T21:33:42.723Z,65.70
2019-05-07T21:36:12.119Z,65.40
2019-05-07T21:38:39.766Z,65.40
2019-05-07T21:41:07.521Z,65.20
2019-05-07T21:43:35.263Z,65.20
2019-05-07T21:46:03.087Z,64.80
2019-05-07T21:48:32.774Z,64.90
2019-05-07T21:51:02.387Z,64.80
2019-05-07T21:53:38.780Z,65.30
2019-05-07T21:56:31.865Z,65.30
2019-05-07T21:59:05.763Z,65.30
2019-05-07T22:01:37.714Z,65.50
2019-05-07T22:04:05.597Z,68.00
2019-05-07T22:06:33.702Z,68.00
2019-05-07T22:09:03.952Z,68.90
2019-05-07T22:11:32.337Z,69.40
2019-05-07T22:14:02.133Z,72.80
2019-05-07T22:16:30.037Z,69.20
2019-05-07T22:18:57.935Z,69.50
2019-05-07T22:21:25.721Z,69.30
2019-05-07T22:23:53.453Z,69.00
2019-05-07T22:26:25.537Z,68.60
2019-05-07T22:28:53.786Z,68.10
2019-05-07T22:31:39.563Z,67.80
2019-05-07T22:34:35.602Z,67.60
2019-05-07T22:37:03.533Z,67.20
2019-05-07T22:39:32.731Z,67.10
2019-05-07T22:42:02.354Z,66.90
2019-05-07T22:44:32.118Z,66.80
2019-05-07T22:47:12.308Z,66.90
2019-05-07T22:49:41.979Z,66.80
2019-05-07T22:52:09.548Z,67.20
2019-05-07T22:54:37.376Z,70.30
2019-05-07T22:57:13.916Z,66.80
2019-05-07T22:59:40.502Z,67.30
2019-05-07T23:02:08.434Z,69.40
2019-05-07T23:04:36.158Z,68.10
2019-05-07T23:07:04.010Z,68.10
2019-05-07T23:09:31.735Z,68.80
2019-05-07T23:12:02.758Z,68.80
2019-05-07T23:14:32.737Z,68.70
2019-05-07T23:17:02.226Z,68.90
2019-05-07T23:19:29.655Z,69.50
2019-05-07T23:21:57.534Z,69.40
2019-05-07T23:24:25.299Z,69.70
2019-05-07T23:26:53.765Z,73.30
2019-05-07T23:29:22.514Z,71.20
2019-05-07T23:31:52.839Z,73.50
2019-05-07T23:34:21.957Z,72.30
2019-05-07T23:36:49.956Z,73.30
2019-05-07T23:39:19.568Z,73.30
2019-05-07T23:42:02.292Z,73.60
2019-05-07T23:44:30.228Z,74.30
2019-05-07T23:46:57.881Z,75.50
2019-05-07T23:49:25.586Z,76.60
2019-05-07T23:51:53.348Z,77.20
2019-05-07T23:54:22.969Z,77.30
2019-05-07T23:57:04.464Z,77.90
2019-05-07T23:59:22.191Z,78.80
